Time;durP1;ratioP1;P1;durP2;ratioP2;P2;SDS_P1;SDS_P2;PMS_P1;PMS_P2;Temp;Humidity;BMP_temperature;BMP_pressure;BME280_temperature;BME280_humidity;BME280_pressure;Samples;Min_cycle;Max_cycle;Signal;HPM_P1;HPM_P2
2022/04/10 00:00:40;;;;;;;11.88;8.23;;;;;;;8.40;84.96;98339.75;5026127;28;20104;-58
2022/04/10 00:03:06;;;;;;;10.70;7.57;;;;;;;8.25;83.76;98329.97;5026150;28;20034;-58
2022/04/10 00:05:32;;;;;;;12.30;7.47;;;;;;;8.27;83.79;98323.03;5038052;28;20021;-59
2022/04/10 00:07:58;;;;;;;14.52;7.90;;;;;;;8.40;83.71;98332.03;5038535;28;20029;-58
2022/04/10 00:10:24;;;;;;;11.02;8.32;;;;;;;8.55;84.22;98332.41;5025246;28;20085;-58
2022/04/10 00:12:50;;;;;;;11.65;8.18;;;;;;;8.26;84.49;98314.44;5026329;28;20029;-59
2022/04/10 00:15:15;;;;;;;9.32;8.07;;;;;;;8.34;84.87;98314.19;5025975;28;20037;-59
2022/04/10 00:17:41;;;;;;;11.63;8.70;;;;;;;8.25;84.91;98304.19;5026022;28;20192;-57
2022/04/10 00:20:09;;;;;;;11.20;8.23;;;;;;;8.39;85.23;98309.69;5033359;28;20022;-58
2022/04/10 00:22:45;;;;;;;10.23;7.93;;;;;;;7.95;84.71;98256.19;5010161;28;20034;-58
2022/04/10 00:25:12;;;;;;;9.35;7.50;;;;;;;8.42;84.60;98301.00;5005514;28;20026;-58
2022/04/10 00:27:40;;;;;;;12.13;7.97;;;;;;;8.30;84.80;98302.28;5025810;28;20247;-58
2022/04/10 00:30:06;;;;;;;8.32;7.35;;;;;;;8.35;84.68;98297.81;5025687;28;20029;-58
2022/04/10 00:32:32;;;;;;;11.68;7.47;;;;;;;8.36;84.64;98289.16;5037324;28;20344;-58
2022/04/10 00:34:57;;;;;;;9.52;7.43;;;;;;;8.11;85.96;98284.03;5039128;28;20026;-58
2022/04/10 00:37:23;;;;;;;9.68;7.05;;;;;;;8.27;85.87;98284.34;5027492;28;20334;-57
2022/04/10 00:39:49;;;;;;;11.57;7.53;;;;;;;8.26;85.47;98280.06;5034321;28;20116;-58
2022/04/10 00:42:15;;;;;;;8.55;7.28;;;;;;;8.37;84.89;98279.72;5025469;28;20026;-58
2022/04/10 00:44:41;;;;;;;9.18;7.60;;;;;;;8.19;85.47;98287.19;5028601;28;20319;-59
2022/04/10 00:47:06;;;;;;;9.25;7.07;;;;;;;8.36;85.48;98276.28;5060778;28;20087;-59
2022/04/10 00:49:32;;;;;;;9.90;6.95;;;;;;;8.30;84.75;98269.59;5040974;28;20223;-58
2022/04/10 00:51:59;;;;;;;11.60;7.20;;;;;;;8.26;86.67;98272.34;5025338;28;20021;-58
2022/04/10 00:54:26;;;;;;;9.50;6.90;;;;;;;8.40;85.65;98275.28;5026130;28;20065;-58
2022/04/10 00:56:54;;;;;;;10.85;6.18;;;;;;;8.17;84.71;98270.09;5039198;28;20053;-58
2022/04/10 00:59:20;;;;;;;12.48;6.95;;;;;;;8.19;85.74;98260.56;5035736;28;20022;-58
2022/04/10 01:01:47;;;;;;;10.88;6.88;;;;;;;8.25;86.31;98258.63;5025234;28;20029;-58
2022/04/10 01:04:13;;;;;;;9.48;6.80;;;;;;;8.39;85.49;98263.25;5024159;28;20048;-58
2022/04/10 01:06:40;;;;;;;10.40;7.28;;;;;;;8.40;86.25;98267.53;5025300;28;20052;-58
2022/04/10 01:09:06;;;;;;;8.68;6.80;;;;;;;8.42;85.11;98268.34;5040829;28;20048;-58
2022/04/10 01:11:33;;;;;;;8.40;7.00;;;;;;;8.34;86.40;98265.19;5023584;28;20093;-58
2022/04/10 01:13:59;;;;;;;9.13;6.85;;;;;;;8.46;85.75;98267.38;5011618;28;20105;-58
2022/04/10 01:16:25;;;;;;;7.85;6.57;;;;;;;8.52;85.69;98268.03;5025072;28;20042;-58
2022/04/10 01:18:51;;;;;;;8.90;7.68;;;;;;;8.48;85.88;98266.44;5025045;28;20034;-58
2022/04/10 01:21:23;;;;;;;8.73;7.13;;;;;;;8.48;86.76;98267.31;5024648;28;20268;-57
2022/04/10 01:23:50;;;;;;;9.55;7.57;;;;;;;8.24;87.17;98259.50;5024834;28;20273;-57
2022/04/10 01:26:15;;;;;;;14.98;7.93;;;;;;;8.42;87.62;98260.59;5024720;28;20355;-57
2022/04/10 01:29:10;;;;;;;11.27;7.22;;;;;;;8.50;86.98;98262.09;5024786;28;20120;-58
2022/04/10 01:31:38;;;;;;;11.38;7.55;;;;;;;8.07;86.99;98187.91;5023475;28;20049;-57
2022/04/10 01:34:08;;;;;;;11.02;7.70;;;;;;;8.37;86.75;98225.53;5024743;28;20040;-57
2022/04/10 01:36:36;;;;;;;10.50;7.80;;;;;;;8.21;86.67;98217.50;5040146;28;20033;-57
2022/04/10 01:39:06;;;;;;;8.80;7.90;;;;;;;8.14;88.39;98216.88;5037014;28;20071;-57
2022/04/10 01:41:32;;;;;;;9.77;7.47;;;;;;;8.40;87.14;98256.38;5015675;28;20038;-58
2022/04/10 01:43:59;;;;;;;9.77;7.70;;;;;;;8.35;87.60;98256.56;5030516;28;20075;-57
2022/04/10 01:46:27;;;;;;;9.82;7.00;;;;;;;8.12;89.39;98235.00;5027239;28;20064;-57
2022/04/10 01:48:53;;;;;;;9.73;7.28;;;;;;;8.25;88.97;98255.19;5024503;28;20032;-57
2022/04/10 01:51:19;;;;;;;9.68;7.00;;;;;;;8.35;89.56;98253.13;5041454;28;20025;-57
2022/04/10 01:53:45;;;;;;;9.63;7.63;;;;;;;8.32;89.16;98242.91;5030713;28;20250;-57
2022/04/10 01:56:11;;;;;;;11.35;7.45;;;;;;;8.47;88.19;98252.72;5024434;28;20030;-57
2022/04/10 01:58:42;;;;;;;7.80;6.95;;;;;;;8.24;88.19;98253.50;5024293;28;20030;-57
2022/04/10 02:01:09;;;;;;;9.73;7.33;;;;;;;7.88;89.60;98179.97;5024313;28;20034;-57
2022/04/10 02:03:36;;;;;;;10.52;7.28;;;;;;;8.09;89.84;98240.25;5022669;28;20049;-57
2022/04/10 02:06:03;;;;;;;9.25;7.63;;;;;;;7.93;90.03;98218.47;5038909;28;20025;-57
2022/04/10 02:08:30;;;;;;;10.52;8.35;;;;;;;7.98;90.63;98224.31;5033570;28;20089;-57
2022/04/10 02:10:56;;;;;;;12.85;8.90;;;;;;;7.84;91.42;98229.09;5023900;28;20050;-57
2022/04/10 02:13:23;;;;;;;12.82;9.48;;;;;;;7.94;91.27;98230.47;5023844;28;20030;-57
2022/04/10 02:15:49;;;;;;;10.50;8.90;;;;;;;8.06;91.04;98227.44;5023844;28;20083;-57
2022/04/10 02:18:14;;;;;;;14.32;9.85;;;;;;;7.90;90.31;98227.16;5040304;28;20030;-59
2022/04/10 02:20:40;;;;;;;10.95;9.23;;;;;;;8.01;90.51;98216.47;5031676;28;20018;-58
2022/04/10 02:23:06;;;;;;;13.10;9.85;;;;;;;7.93;90.74;98219.31;5023781;28;20025;-57
2022/04/10 02:25:32;;;;;;;11.45;9.77;;;;;;;7.95;90.88;98219.25;5023793;28;20022;-57
2022/04/10 02:27:57;;;;;;;13.07;9.80;;;;;;;7.94;91.48;98220.16;5023676;28;20239;-57
2022/04/10 02:30:23;;;;;;;13.13;9.70;;;;;;;8.08;91.00;98223.09;5023630;28;20045;-57
2022/04/10 02:32:48;;;;;;;14.40;8.93;;;;;;;8.13;90.33;98228.91;5023726;28;20068;-57
2022/04/10 02:35:14;;;;;;;11.30;9.93;;;;;;;8.02;90.33;98225.88;5023573;28;20040;-57
2022/04/10 02:37:45;;;;;;;12.43;9.38;;;;;;;7.94;90.66;98215.00;5023646;28;20036;-57
2022/04/10 02:40:16;;;;;;;14.57;10.20;;;;;;;7.69;91.80;98174.59;5023213;28;20330;-56
2022/04/10 02:42:42;;;;;;;10.02;9.00;;;;;;;7.98;91.79;98223.47;5003950;28;20053;-57
2022/04/10 02:45:08;;;;;;;12.50;9.60;;;;;;;7.93;91.50;98233.94;5025148;28;20021;-57
2022/04/10 02:47:34;;;;;;;14.80;10.25;;;;;;;7.91;92.14;98220.28;5043127;28;20322;-57
2022/04/10 02:50:00;;;;;;;11.48;10.05;;;;;;;7.94;92.31;98212.44;5037124;28;20022;-57
2022/04/10 02:52:26;;;;;;;11.95;10.20;;;;;;;7.82;92.60;98215.44;5023251;28;20029;-57
2022/04/10 02:54:52;;;;;;;17.13;9.95;;;;;;;7.86;92.75;98206.69;5023478;28;20299;-57
2022/04/10 02:57:37;;;;;;;11.05;9.60;;;;;;;7.86;92.55;98217.00;5023753;28;20033;-58
2022/04/10 03:00:21;;;;;;;12.20;9.98;;;;;;;8.03;92.50;98221.59;5023374;28;20024;-58
2022/04/10 03:03:05;;;;;;;12.40;10.20;;;;;;;8.02;92.58;98222.47;5023552;28;20056;-57
2022/04/10 03:05:49;;;;;;;13.63;9.85;;;;;;;8.03;92.37;98227.56;5023473;28;20024;-57
2022/04/10 03:08:33;;;;;;;12.60;9.68;;;;;;;8.04;91.70;98225.84;5023384;28;20056;-58
2022/04/10 03:11:18;;;;;;;11.57;10.07;;;;;;;8.16;91.99;98227.16;5025756;28;20032;-57
2022/04/10 03:14:03;;;;;;;10.85;9.70;;;;;;;8.32;90.72;98227.44;5036715;28;20032;-57
2022/04/10 03:16:47;;;;;;;14.02;10.07;;;;;;;8.25;91.61;98226.81;5023107;28;20141;-56
2022/04/10 03:19:31;;;;;;;11.77;10.27;;;;;;;8.26;91.87;98231.06;5022922;28;20415;-57
2022/04/10 03:22:15;;;;;;;12.45;10.82;;;;;;;8.16;92.33;98229.72;5022825;28;20041;-57
2022/04/10 03:24:59;;;;;;;13.60;10.18;;;;;;;8.18;92.24;98235.66;5022814;28;20137;-57
2022/04/10 03:27:43;;;;;;;16.05;13.10;;;;;;;8.29;92.80;98236.13;5024631;28;20084;-57
2022/04/10 03:30:27;;;;;;;11.23;9.88;;;;;;;8.01;92.54;98226.78;5027109;28;20056;-57
2022/04/10 03:33:11;;;;;;;12.35;10.50;;;;;;;8.02;93.72;98241.34;5027113;28;20061;-58
2022/04/10 03:35:55;;;;;;;14.20;10.60;;;;;;;8.02;93.02;98228.44;5026891;28;20086;-57
2022/04/10 03:38:39;;;;;;;12.93;10.82;;;;;;;8.12;93.42;98224.69;5026861;28;20029;-58
2022/04/10 03:41:23;;;;;;;12.73;11.07;;;;;;;8.23;93.75;98232.03;5026326;28;20101;-57
2022/04/10 03:44:07;;;;;;;13.40;11.43;;;;;;;8.05;93.86;98223.22;5026707;28;20040;-57
2022/04/10 03:46:51;;;;;;;14.40;11.55;;;;;;;8.05;95.38;98223.22;5007482;28;20053;-58
2022/04/10 03:49:35;;;;;;;12.75;11.40;;;;;;;8.12;94.25;98216.94;5009088;28;20349;-58
2022/04/10 03:52:19;;;;;;;16.08;11.63;;;;;;;8.18;93.76;98204.72;5025720;28;20029;-58
2022/04/10 03:55:04;;;;;;;16.33;12.18;;;;;;;8.29;93.30;98224.09;5007176;28;20033;-57
2022/04/10 03:57:48;;;;;;;13.73;11.48;;;;;;;8.23;93.87;98226.03;5006883;28;20036;-58
2022/04/10 04:00:31;;;;;;;13.98;11.40;;;;;;;8.35;93.13;98224.75;5024420;28;20098;-58
2022/04/10 04:03:15;;;;;;;14.38;11.27;;;;;;;8.32;93.55;98235.19;5026405;28;20089;-58
2022/04/10 04:05:59;;;;;;;12.43;11.13;;;;;;;8.50;92.68;98236.28;5026314;28;20091;-56
2022/04/10 04:08:43;;;;;;;14.77;11.15;;;;;;;8.51;92.36;98248.28;5037478;28;20155;-58
2022/04/10 04:11:27;;;;;;;12.40;10.95;;;;;;;8.55;91.96;98249.84;5030716;28;20025;-59
2022/04/10 04:14:12;;;;;;;13.82;10.98;;;;;;;8.38;92.44;98251.28;5032976;28;20066;-58
2022/04/10 04:16:56;;;;;;;13.45;11.60;;;;;;;8.35;93.65;98255.69;5041354;28;20056;-57
2022/04/10 04:19:40;;;;;;;14.10;11.27;;;;;;;8.41;93.85;98258.06;5026147;28;20033;-57
2022/04/10 04:22:24;;;;;;;13.73;10.98;;;;;;;8.46;93.09;98263.94;5025862;28;20028;-57
2022/04/10 04:25:08;;;;;;;14.45;11.52;;;;;;;8.44;93.20;98268.28;5025937;28;20464;-57
2022/04/10 04:27:52;;;;;;;13.15;11.35;;;;;;;8.49;92.88;98268.13;5006497;28;20026;-57
2022/04/10 04:30:36;;;;;;;14.60;12.05;;;;;;;8.56;93.57;98261.84;5023921;28;20079;-58
2022/04/10 04:33:20;;;;;;;15.70;11.70;;;;;;;8.50;93.68;98264.66;5041972;28;20349;-57
2022/04/10 04:36:04;;;;;;;12.13;10.77;;;;;;;8.62;92.64;98266.78;5027734;28;20428;-57
2022/04/10 04:38:48;;;;;;;14.65;12.85;;;;;;;8.26;93.42;98275.75;5022278;28;20045;-58
2022/04/10 04:41:32;;;;;;;15.80;13.10;;;;;;;8.37;94.81;98267.66;5034700;28;20029;-58
2022/04/10 04:44:16;;;;;;;15.98;12.80;;;;;;;8.43;93.54;98271.75;5038270;28;20033;-58
2022/04/10 04:47:00;;;;;;;15.23;13.10;;;;;;;8.44;94.16;98261.41;5010511;28;20056;-57
2022/04/10 04:49:44;;;;;;;13.68;12.00;;;;;;;8.68;92.85;98276.91;5025597;28;20045;-57
2022/04/10 04:52:28;;;;;;;16.27;13.55;;;;;;;8.71;93.46;98276.78;5025328;28;20112;-58
2022/04/10 04:55:12;;;;;;;19.52;13.98;;;;;;;8.62;92.88;98284.84;5025612;28;20048;-57
2022/04/10 04:57:56;;;;;;;15.88;13.63;;;;;;;8.80;93.58;98278.19;5025346;28;20084;-58
2022/04/10 05:00:40;;;;;;;17.00;14.68;;;;;;;8.69;93.03;98281.16;5020665;28;20068;-57
2022/04/10 05:03:24;;;;;;;16.58;12.88;;;;;;;8.62;93.91;98285.72;5023214;28;20076;-57
2022/04/10 05:06:08;;;;;;;18.60;15.05;;;;;;;8.55;94.18;98276.50;5022292;28;20033;-57
2022/04/10 05:08:52;;;;;;;18.40;15.10;;;;;;;8.56;94.65;98292.81;5037572;28;20206;-57
2022/04/10 05:11:36;;;;;;;16.92;14.98;;;;;;;8.71;94.02;98294.84;5023911;28;20334;-58
2022/04/10 05:14:20;;;;;;;17.00;14.32;;;;;;;8.73;93.98;98292.22;5032545;28;20075;-57
2022/04/10 05:17:04;;;;;;;16.23;13.85;;;;;;;8.82;93.96;98291.84;5044844;28;20048;-58
2022/04/10 05:19:48;;;;;;;16.30;14.60;;;;;;;8.90;93.15;98305.34;5041566;28;20087;-58
2022/04/10 05:22:32;;;;;;;17.50;14.65;;;;;;;8.82;93.66;98299.59;5024571;28;20222;-58
2022/04/10 05:25:17;;;;;;;17.70;14.43;;;;;;;8.90;92.59;98302.75;5024907;28;20060;-58
2022/04/10 05:28:02;;;;;;;16.42;13.68;;;;;;;8.94;93.57;98306.06;5015629;28;20084;-57
2022/04/10 05:30:46;;;;;;;18.55;13.93;;;;;;;9.03;92.64;98317.78;5012249;28;20308;-58
2022/04/10 05:33:34;;;;;;;24.17;17.98;;;;;;;9.11;93.36;98318.34;5029204;28;20036;-57
2022/04/10 05:36:18;;;;;;;19.77;15.60;;;;;;;9.08;92.26;98319.31;5024320;28;20270;-57
2022/04/10 05:39:02;;;;;;;16.35;13.95;;;;;;;9.11;92.98;98321.78;5037312;28;20348;-57
2022/04/10 05:41:50;;;;;;;21.20;17.05;;;;;;;9.12;92.21;98326.03;5026710;28;20079;-57
2022/04/10 05:44:34;;;;;;;16.10;14.43;;;;;;;8.96;92.43;98332.66;5036918;28;20111;-57
2022/04/10 05:47:19;;;;;;;18.42;15.02;;;;;;;9.09;92.47;98341.66;5037433;28;20154;-58
2022/04/10 05:50:03;;;;;;;15.00;13.10;;;;;;;9.20;92.82;98345.56;5028879;28;20040;-57
2022/04/10 05:52:48;;;;;;;29.98;24.20;;;;;;;9.18;93.20;98357.69;5040736;28;20261;-58
2022/04/10 05:55:32;;;;;;;18.65;16.00;;;;;;;9.15;92.57;98336.25;5024235;28;20037;-57
2022/04/10 05:58:16;;;;;;;18.35;15.52;;;;;;;9.13;93.21;98338.03;5024210;28;20032;-57
2022/04/10 06:01:00;;;;;;;18.20;14.98;;;;;;;9.17;93.33;98343.13;5023914;28;20065;-57
2022/04/10 06:03:44;;;;;;;18.00;13.98;;;;;;;9.23;92.60;98350.63;5024032;28;20109;-57
2022/04/10 06:06:28;;;;;;;17.75;14.98;;;;;;;9.33;92.95;98350.22;5024056;28;20041;-58
2022/04/10 06:09:12;;;;;;;19.27;16.52;;;;;;;9.39;92.05;98338.81;5037362;28;20025;-58
2022/04/10 06:11:56;;;;;;;18.65;14.32;;;;;;;9.42;91.93;98350.75;5016573;28;20098;-58
2022/04/10 06:14:40;;;;;;;24.33;19.55;;;;;;;9.43;92.59;98349.88;5033731;28;20032;-58
2022/04/10 06:17:07;;;;;;;18.10;15.68;;;;;;;9.19;93.21;98356.81;5043262;28;20029;-57
2022/04/10 06:19:33;;;;;;;19.23;14.15;;;;;;;9.42;93.41;98354.19;5042206;28;20275;-58
2022/04/10 06:21:59;;;;;;;16.27;14.52;;;;;;;9.43;93.02;98367.94;5029337;28;20211;-58
2022/04/10 06:24:27;;;;;;;20.08;16.27;;;;;;;9.50;93.12;98383.19;5009208;28;20120;-58
2022/04/10 06:26:53;;;;;;;18.67;14.93;;;;;;;9.35;92.92;98388.94;5014946;28;20021;-57
2022/04/10 06:29:19;;;;;;;18.45;14.90;;;;;;;9.41;92.99;98388.69;5023393;28;20085;-57
2022/04/10 06:31:45;;;;;;;18.90;16.02;;;;;;;9.39;92.97;98387.06;5023191;28;20049;-58
2022/04/10 06:34:11;;;;;;;17.35;15.48;;;;;;;9.43;92.02;98386.88;5023438;28;20090;-58
2022/04/10 06:36:38;;;;;;;18.40;15.55;;;;;;;9.34;92.45;98397.56;5023231;28;20093;-57
2022/04/10 06:39:04;;;;;;;16.95;13.65;;;;;;;9.44;92.91;98413.56;5023211;28;20076;-58
2022/04/10 06:41:30;;;;;;;17.33;14.25;;;;;;;9.48;92.11;98421.13;5022849;28;20183;-58
2022/04/10 06:43:55;;;;;;;21.40;14.77;;;;;;;9.49;91.87;98433.16;5023331;28;20026;-57
2022/04/10 06:46:21;;;;;;;15.77;13.85;;;;;;;9.41;92.38;98426.63;5039930;28;20318;-58
2022/04/10 06:48:47;;;;;;;16.38;14.00;;;;;;;9.40;92.38;98430.09;5022780;28;20369;-57
2022/04/10 06:51:13;;;;;;;15.65;12.65;;;;;;;9.36;93.40;98438.84;5035457;28;20286;-58
2022/04/10 06:53:38;;;;;;;16.35;12.27;;;;;;;9.33;91.99;98442.38;5016885;28;20029;-57
2022/04/10 06:56:04;;;;;;;12.52;9.45;;;;;;;9.23;92.51;98446.19;5014364;28;20211;-57
2022/04/10 06:58:30;;;;;;;9.65;8.00;;;;;;;9.20;91.37;98444.56;5011681;28;20311;-58
2022/04/10 07:00:55;;;;;;;11.40;8.50;;;;;;;9.33;91.86;98438.06;5047565;28;20040;-58
2022/04/10 07:03:21;;;;;;;10.07;8.93;;;;;;;9.31;91.86;98439.84;5014832;28;20018;-58
2022/04/10 07:05:48;;;;;;;8.18;6.68;;;;;;;9.22;91.47;98460.00;5013820;28;20036;-56
2022/04/10 07:08:14;;;;;;;7.32;6.25;;;;;;;9.28;90.86;98468.38;5047933;28;20084;-57
2022/04/10 07:10:39;;;;;;;8.43;6.50;;;;;;;9.40;91.39;98467.09;5045924;28;20300;-58
2022/04/10 07:13:05;;;;;;;6.57;5.97;;;;;;;9.29;91.05;98474.38;5013731;28;20250;-57
2022/04/10 07:15:31;;;;;;;8.63;7.13;;;;;;;9.38;91.43;98481.81;5013971;28;20192;-57
2022/04/10 07:17:58;;;;;;;6.88;6.18;;;;;;;9.28;90.54;98472.72;5013373;28;20092;-58
2022/04/10 07:20:25;;;;;;;8.43;6.05;;;;;;;9.35;90.89;98500.03;5013290;28;20033;-57
2022/04/10 07:25:35;;;;;;;6.63;5.40;;;;;;;9.17;90.11;98516.16;5008878;28;20026;-57
2022/04/10 07:28:01;;;;;;;5.53;4.18;;;;;;;9.03;88.37;98530.38;5022815;28;20073;-58
2022/04/10 07:30:27;;;;;;;3.60;2.58;;;;;;;8.85;86.95;98541.31;5013389;28;20049;-58
2022/04/10 07:32:57;;;;;;;2.08;1.90;;;;;;;8.64;85.96;98552.31;5016813;28;20038;-57
2022/04/10 07:35:24;;;;;;;3.10;2.20;;;;;;;8.59;85.51;98559.38;5009663;28;20076;-57
2022/04/10 07:37:50;;;;;;;2.05;1.63;;;;;;;8.56;85.74;98567.19;5024445;28;20021;-58
2022/04/10 07:40:17;;;;;;;1.52;1.38;;;;;;;8.63;84.92;98570.41;5026586;28;20041;-58
2022/04/10 07:42:43;;;;;;;2.40;1.90;;;;;;;8.52;83.64;98575.06;5004141;28;20116;-57
2022/04/10 07:45:10;;;;;;;3.47;1.63;;;;;;;8.42;84.73;98572.75;5015081;28;20057;-58
2022/04/10 07:47:36;;;;;;;5.40;3.90;;;;;;;8.64;84.15;98569.53;5008412;28;20034;-58
2022/04/10 07:50:03;;;;;;;4.28;2.20;;;;;;;8.59;83.90;98579.16;5024759;28;20100;-58
2022/04/10 07:52:29;;;;;;;2.83;1.40;;;;;;;8.56;83.94;98582.66;5032240;28;20034;-58
2022/04/10 07:54:55;;;;;;;3.28;1.65;;;;;;;8.41;82.48;98572.81;5007930;28;20342;-58
2022/04/10 07:57:21;;;;;;;1.05;0.98;;;;;;;8.44;81.55;98588.19;5011934;28;20034;-57
2022/04/10 07:59:46;;;;;;;2.28;1.25;;;;;;;8.40;82.36;98595.16;5021968;28;20041;-57
2022/04/10 08:02:12;;;;;;;1.02;1.02;;;;;;;8.30;81.48;98602.31;5021337;28;20018;-56
2022/04/10 08:04:38;;;;;;;1.15;1.00;;;;;;;8.50;81.98;98605.25;5037662;28;20219;-57
2022/04/10 08:07:05;;;;;;;1.55;1.30;;;;;;;8.56;82.07;98617.97;5022247;28;20333;-58
2022/04/10 08:09:32;;;;;;;1.65;1.40;;;;;;;8.61;81.14;98624.66;5014804;28;20560;-58
2022/04/10 08:11:58;;;;;;;6.13;4.05;;;;;;;8.68;82.62;98625.31;5024326;28;20026;-58
2022/04/10 08:14:23;;;;;;;3.78;1.70;;;;;;;8.74;81.55;98637.19;5019790;28;20029;-59
2022/04/10 08:16:49;;;;;;;1.67;1.38;;;;;;;8.80;80.97;98645.56;5043796;28;20067;-58
2022/04/10 08:19:15;;;;;;;2.45;1.92;;;;;;;8.83;81.14;98648.97;5025898;28;20022;-57
2022/04/10 08:21:40;;;;;;;1.55;1.30;;;;;;;8.92;81.32;98641.78;5024823;28;20030;-57
2022/04/10 08:24:08;;;;;;;2.35;1.33;;;;;;;8.68;81.39;98648.56;5025759;28;20242;-57
2022/04/10 08:26:34;;;;;;;1.67;1.45;;;;;;;8.60;80.96;98658.25;5025501;28;20341;-57
2022/04/10 08:29:00;;;;;;;3.33;1.60;;;;;;;8.74;80.74;98663.84;5025690;28;20030;-58
2022/04/10 08:31:28;;;;;;;1.75;1.27;;;;;;;8.72;78.76;98654.47;5041108;28;20026;-58
2022/04/10 08:33:53;;;;;;;1.40;1.10;;;;;;;8.76;78.87;98672.38;5023989;28;20109;-56
2022/04/10 08:36:19;;;;;;;2.72;1.50;;;;;;;8.94;79.01;98686.47;5025312;28;20022;-57
2022/04/10 08:38:45;;;;;;;2.05;1.38;;;;;;;8.99;77.83;98691.47;5020306;28;20097;-57
2022/04/10 08:41:13;;;;;;;1.60;1.20;;;;;;;8.92;78.01;98700.31;5021691;28;20037;-57
2022/04/10 08:43:39;;;;;;;3.83;1.02;;;;;;;9.00;76.90;98708.69;5025205;28;20022;-57
2022/04/10 08:46:06;;;;;;;1.23;1.13;;;;;;;8.98;77.13;98718.22;5036832;28;20388;-57
2022/04/10 08:48:31;;;;;;;1.15;1.00;;;;;;;8.94;77.27;98730.38;5014050;28;20072;-57
2022/04/10 08:50:58;;;;;;;3.17;1.90;;;;;;;8.98;78.44;98720.81;5016051;28;20125;-57
2022/04/10 08:53:24;;;;;;;3.42;1.55;;;;;;;8.82;77.01;98710.06;5024703;28;20034;-57
2022/04/10 08:55:51;;;;;;;2.13;1.38;;;;;;;8.94;78.55;98734.69;5015007;28;20319;-57
2022/04/10 08:58:34;;;;;;;2.00;1.27;;;;;;;8.31;78.30;98667.69;5005488;28;20037;-57
2022/04/10 09:00:59;;;;;;;1.83;1.40;;;;;;;8.87;78.63;98738.34;5024218;28;20048;-57
2022/04/10 09:03:25;;;;;;;1.63;1.27;;;;;;;8.84;77.60;98734.13;5027286;28;20029;-57
2022/04/10 09:06:05;;;;;;;1.38;1.27;;;;;;;8.68;76.30;98687.28;5034888;28;20033;-57
2022/04/10 09:08:32;;;;;;;1.38;1.27;;;;;;;9.13;75.77;98742.72;5034980;28;20041;-62
2022/04/10 09:11:00;;;;;;;1.30;1.20;;;;;;;9.26;76.14;98753.50;5016245;28;20033;-57
2022/04/10 09:13:34;;;;;;;2.10;1.35;;;;;;;9.17;74.14;98748.66;5024544;28;20105;-58
2022/04/10 09:16:23;;;;;;;2.95;1.55;;;;;;;9.04;74.75;98761.91;5043089;28;20033;-57
2022/04/10 09:18:56;;;;;;;1.60;1.50;;;;;;;9.24;75.98;98781.16;5014379;28;20022;-57
2022/04/10 09:21:24;;;;;;;1.80;1.70;;;;;;;9.18;74.88;98773.56;5033029;28;20104;-58
2022/04/10 09:23:54;;;;;;;2.00;1.80;;;;;;;9.12;75.51;98757.38;5034190;28;20312;-58
2022/04/10 09:26:20;;;;;;;2.08;1.77;;;;;;;9.35;76.20;98768.75;5023394;28;20033;-58
2022/04/10 09:28:48;;;;;;;2.30;2.10;;;;;;;9.13;75.10;98746.13;5025311;28;20053;-59
2022/04/10 09:31:33;;;;;;;2.53;2.00;;;;;;;9.09;75.77;98788.47;5044299;28;20095;-58
2022/04/10 09:34:08;;;;;;;2.42;2.10;;;;;;;9.15;75.41;98816.69;5018835;28;20211;-57
2022/04/10 09:36:42;;;;;;;4.47;2.60;;;;;;;8.79;76.56;98746.31;5022058;28;20041;-58
2022/04/10 09:39:11;;;;;;;4.97;2.78;;;;;;;9.10;75.11;98790.13;5036204;28;20040;-58
2022/04/10 09:41:39;;;;;;;3.58;2.45;;;;;;;9.31;76.44;98811.06;5032188;28;20036;-56
2022/04/10 09:44:11;;;;;;;2.53;2.33;;;;;;;9.05;74.91;98827.31;5037696;28;20086;-56
2022/04/10 09:46:37;;;;;;;3.80;2.35;;;;;;;9.06;75.85;98816.94;5011715;28;20046;-57
2022/04/10 09:49:04;;;;;;;3.70;2.83;;;;;;;9.02;75.49;98817.94;5027985;28;20030;-57
2022/04/10 09:51:29;;;;;;;3.42;2.72;;;;;;;9.02;76.65;98833.44;5024110;28;20028;-57
2022/04/10 09:54:04;;;;;;;4.25;2.88;;;;;;;8.81;75.90;98773.78;5015970;28;20030;-57
2022/04/10 09:56:29;;;;;;;3.05;2.65;;;;;;;9.10;76.17;98828.06;5015466;28;20025;-58
2022/04/10 09:59:00;;;;;;;2.60;2.40;;;;;;;9.40;74.30;98840.94;5016444;28;20040;-58
2022/04/10 10:01:27;;;;;;;2.67;2.47;;;;;;;9.60;72.96;98842.91;5015723;28;20030;-58
2022/04/10 10:03:56;;;;;;;3.67;2.70;;;;;;;9.29;72.02;98787.00;5017524;28;20022;-58
2022/04/10 10:06:23;;;;;;;2.90;2.58;;;;;;;9.69;71.95;98852.97;5016759;28;20282;-58
2022/04/10 10:08:50;;;;;;;4.10;3.15;;;;;;;9.78;71.20;98860.44;5020229;28;20018;-58
2022/04/10 10:11:17;;;;;;;3.80;2.85;;;;;;;9.87;71.52;98843.78;5021119;28;20322;-58
2022/04/10 10:13:43;;;;;;;4.55;2.80;;;;;;;9.98;70.48;98839.09;5028527;28;20284;-57
2022/04/10 10:16:10;;;;;;;6.80;3.35;;;;;;;9.93;70.23;98850.50;5009758;28;20101;-57
2022/04/10 10:18:36;;;;;;;2.70;2.40;;;;;;;9.48;69.18;98784.72;5018223;28;20026;-58
2022/04/10 10:21:03;;;;;;;3.75;2.40;;;;;;;9.79;69.83;98848.34;5013016;28;20030;-58
2022/04/10 10:23:28;;;;;;;2.75;2.55;;;;;;;9.80;70.79;98857.78;5023123;28;20064;-58
2022/04/10 10:25:54;;;;;;;2.85;2.65;;;;;;;9.93;68.89;98860.84;5023514;28;20088;-57
2022/04/10 10:28:38;;;;;;;4.57;2.90;;;;;;;10.03;68.68;98862.22;5023149;28;20333;-58
2022/04/10 10:31:36;;;;;;;3.97;2.63;;;;;;;10.10;68.48;98862.88;5042675;28;20034;-58
2022/04/10 10:34:05;;;;;;;4.82;2.90;;;;;;;9.84;66.76;98813.69;5027787;28;20025;-57
2022/04/10 10:36:31;;;;;;;3.13;2.83;;;;;;;10.23;67.12;98868.50;5037730;28;20128;-58
2022/04/10 10:38:58;;;;;;;4.05;3.17;;;;;;;10.02;67.39;98860.56;5010734;28;20040;-58
2022/04/10 10:41:43;;;;;;;10.45;3.13;;;;;;;10.19;68.42;98865.19;5020532;28;20034;-59
2022/04/10 10:44:18;;;;;;;2.90;2.70;;;;;;;10.08;67.20;98875.88;5022939;28;20048;-57
2022/04/10 10:47:26;;;;;;;3.97;3.05;;;;;;;10.09;68.50;98882.75;5007210;28;20101;-58
2022/04/10 10:49:53;;;;;;;2.60;2.40;;;;;;;10.20;67.12;98879.78;5041520;28;20311;-58
2022/04/10 10:52:21;;;;;;;3.35;3.05;;;;;;;10.39;65.25;98886.97;5021846;28;20034;-58
2022/04/10 10:54:59;;;;;;;3.85;3.03;;;;;;;10.50;65.11;98898.66;5022983;28;20026;-58
2022/04/10 10:57:38;;;;;;;4.10;3.45;;;;;;;10.20;64.54;98846.16;5036442;28;20326;-59
2022/04/10 11:00:08;;;;;;;4.75;3.25;;;;;;;10.61;64.88;98905.22;5042871;28;20263;-59
2022/04/10 11:02:35;;;;;;;4.00;2.97;;;;;;;10.38;63.92;98899.06;5018936;28;20021;-58
2022/04/10 11:05:25;;;;;;;3.28;2.97;;;;;;;10.14;64.00;98848.94;5024980;28;20440;-58
2022/04/10 11:08:04;;;;;;;3.88;3.10;;;;;;;10.07;66.04;98871.56;5013443;28;20040;-60
2022/04/10 11:10:31;;;;;;;3.70;3.33;;;;;;;10.28;66.29;98923.53;5010063;28;20064;-60
2022/04/10 11:13:06;;;;;;;4.55;3.60;;;;;;;10.26;65.95;98914.97;5040808;28;20060;-59
2022/04/10 11:15:47;;;;;;;3.80;3.50;;;;;;;10.25;65.28;98929.66;5028269;28;20041;-58
2022/04/10 11:18:36;;;;;;;4.72;3.53;;;;;;;10.04;64.74;98881.19;5018675;28;20242;-58
2022/04/10 11:21:09;;;;;;;4.20;3.47;;;;;;;10.10;65.73;98875.81;5022665;28;20033;-58
2022/04/10 11:23:47;;;;;;;4.57;4.05;;;;;;;10.46;66.30;98938.50;5022698;28;20026;-58
2022/04/10 11:26:19;;;;;;;4.38;3.80;;;;;;;10.27;65.90;98947.72;5020344;28;20046;-59
2022/04/10 11:28:57;;;;;;;4.07;3.67;;;;;;;10.43;66.37;98935.16;5021285;28;20044;-57
2022/04/10 11:31:47;;;;;;;5.15;3.95;;;;;;;10.33;65.28;98931.97;5022881;28;20097;-58
2022/04/10 11:34:23;;;;;;;4.40;3.90;;;;;;;9.98;64.16;98869.31;5018910;28;20038;-58
2022/04/10 11:36:54;;;;;;;4.40;3.63;;;;;;;10.48;64.22;98925.50;5039464;28;20021;-58
2022/04/10 11:39:31;;;;;;;4.03;3.70;;;;;;;10.46;65.05;98933.31;5016291;28;20128;-59
2022/04/10 11:42:00;;;;;;;8.77;6.07;;;;;;;10.01;63.52;98895.91;5032382;28;20033;-59
2022/04/10 11:44:27;;;;;;;4.88;3.80;;;;;;;10.26;62.70;98928.75;5036875;28;20124;-59
2022/04/10 11:46:53;;;;;;;5.60;3.67;;;;;;;10.28;63.61;98923.53;5022394;28;20057;-60
2022/04/10 11:49:19;;;;;;;5.65;3.80;;;;;;;10.40;63.22;98922.31;5019086;28;20030;-59
2022/04/10 11:51:56;;;;;;;6.07;3.88;;;;;;;10.21;62.91;98871.13;5022176;28;20018;-59
2022/04/10 11:54:31;;;;;;;4.28;3.88;;;;;;;10.59;64.00;98930.31;5023289;28;20409;-59
2022/04/10 11:57:02;;;;;;;7.63;4.07;;;;;;;10.51;62.70;98926.22;5031664;28;20032;-58
2022/04/10 11:59:38;;;;;;;4.32;3.92;;;;;;;10.62;63.31;98932.81;5019751;28;20032;-60
2022/04/10 12:02:14;;;;;;;5.60;3.58;;;;;;;10.24;64.17;98880.53;5014784;28;20049;-59